Time;durP1;ratioP1;P1;durP2;ratioP2;P2;SDS_P1;SDS_P2;PMS_P1;PMS_P2;Temp;Humidity;BMP_temperature;BMP_pressure;BME280_temperature;BME280_humidity;BME280_pressure;Samples;Min_cycle;Max_cycle;Signal;HPM_P1;HPM_P2
2021/08/25 00:00:18;;;;;;;7.27;3.90;;;14.80;99.90;;;;;;5062098;28;20450;-50
2021/08/25 00:02:46;;;;;;;7.40;3.87;;;14.70;99.90;;;;;;5062133;28;20468;-48
2021/08/25 00:05:13;;;;;;;7.40;4.33;;;14.70;99.90;;;;;;5061825;28;20797;-51
2021/08/25 00:07:40;;;;;;;6.77;4.00;;;14.70;99.90;;;;;;5061685;28;20450;-50
2021/08/25 00:10:07;;;;;;;5.10;3.30;;;14.70;99.90;;;;;;5061924;28;20894;-49
2021/08/25 00:12:34;;;;;;;7.50;3.30;;;14.60;99.90;;;;;;5059242;28;20512;-49
2021/08/25 00:15:00;;;;;;;6.57;4.07;;;14.50;99.90;;;;;;5058836;28;20439;-46
2021/08/25 00:17:27;;;;;;;9.57;4.13;;;14.50;99.90;;;;;;5058509;28;20463;-49
2021/08/25 00:19:56;;;;;;;5.90;4.10;;;14.40;99.90;;;;;;5056702;28;20443;-48
2021/08/25 00:22:23;;;;;;;6.50;3.50;;;14.50;99.90;;;;;;5056952;28;20446;-48
2021/08/25 00:24:50;;;;;;;7.23;3.53;;;14.50;99.90;;;;;;5056739;28;20532;-48
2021/08/25 00:27:17;;;;;;;6.20;3.70;;;14.50;99.90;;;;;;5056761;28;20444;-47
2021/08/25 00:29:43;;;;;;;13.13;4.13;;;14.40;99.90;;;;;;5056575;28;20915;-44
2021/08/25 00:32:10;;;;;;;6.23;3.00;;;14.40;99.90;;;;;;5057046;28;20520;-45
2021/08/25 00:34:37;;;;;;;6.27;3.43;;;14.40;99.90;;;;;;5057026;28;20443;-46
2021/08/25 00:37:05;;;;;;;4.60;3.50;;;14.40;99.90;;;;;;5056969;28;20847;-49
2021/08/25 00:39:32;;;;;;;6.10;3.07;;;14.40;99.90;;;;;;5057579;28;20459;-43
2021/08/25 00:41:58;;;;;;;6.83;3.73;;;14.40;99.90;;;;;;5056739;28;20517;-43
2021/08/25 00:44:25;;;;;;;5.50;3.50;;;14.30;99.90;;;;;;5056146;28;20427;-44
2021/08/25 00:46:52;;;;;;;7.60;3.50;;;14.30;99.90;;;;;;5056593;28;20524;-49
2021/08/25 00:49:19;;;;;;;8.27;4.40;;;14.30;99.90;;;;;;5056297;28;20516;-47
2021/08/25 00:51:47;;;;;;;5.03;3.03;;;14.30;99.90;;;;;;5056095;28;20517;-43
2021/08/25 00:54:16;;;;;;;7.03;3.57;;;14.30;99.90;;;;;;5056382;28;20439;-48
2021/08/25 00:56:43;;;;;;;7.13;2.50;;;14.30;99.90;;;;;;5056263;28;20451;-50
2021/08/25 00:59:11;;;;;;;5.90;3.10;;;14.20;99.90;;;;;;5056218;28;20499;-46
2021/08/25 01:01:51;;;;;;;6.47;3.33;;;14.20;99.90;;;;;;5056373;28;20447;-47
2021/08/25 01:04:25;;;;;;;7.40;4.03;;;14.20;99.90;;;;;;5056040;28;20451;-49
2021/08/25 01:06:52;;;;;;;6.33;3.27;;;14.20;99.90;;;;;;5055892;28;20485;-48
2021/08/25 01:09:20;;;;;;;9.13;3.57;;;14.20;99.90;;;;;;5056234;28;20833;-50
2021/08/25 01:11:48;;;;;;;7.30;3.33;;;14.20;99.90;;;;;;5056303;28;20505;-44
2021/08/25 01:14:15;;;;;;;9.43;3.30;;;14.10;99.90;;;;;;5056079;28;20483;-47
2021/08/25 01:16:43;;;;;;;6.17;3.37;;;14.10;99.90;;;;;;5055975;28;20828;-43
2021/08/25 01:19:14;;;;;;;5.53;3.03;;;14.10;99.90;;;;;;5055937;28;20467;-43
2021/08/25 01:21:42;;;;;;;6.17;2.83;;;14.10;99.90;;;;;;5056305;28;20504;-45
2021/08/25 01:24:11;;;;;;;4.73;2.90;;;14.00;99.90;;;;;;5055913;28;20485;-43
2021/08/25 01:26:40;;;;;;;5.23;3.00;;;14.00;99.90;;;;;;5055489;28;20479;-44
2021/08/25 01:29:15;;;;;;;6.77;3.87;;;14.00;99.90;;;;;;5056071;28;20455;-43
2021/08/25 01:31:42;;;;;;;5.63;3.00;;;14.00;99.90;;;;;;5055648;28;20977;-44
2021/08/25 01:34:09;;;;;;;5.97;3.70;;;14.00;99.90;;;;;;5055797;28;20936;-42
2021/08/25 01:36:37;;;;;;;6.63;4.27;;;13.90;99.90;;;;;;5055877;28;20746;-48
2021/08/25 01:39:04;;;;;;;10.37;3.07;;;13.90;99.90;;;;;;5055598;28;20447;-44
2021/08/25 01:41:31;;;;;;;7.20;3.57;;;13.80;99.90;;;;;;5055767;28;20447;-43
2021/08/25 01:43:59;;;;;;;7.50;2.80;;;13.80;99.90;;;;;;5055463;28;20509;-42
2021/08/25 01:46:29;;;;;;;6.93;3.67;;;13.80;99.90;;;;;;5055382;28;21152;-47
2021/08/25 01:48:57;;;;;;;5.70;3.80;;;13.70;99.90;;;;;;5055887;28;20803;-49
2021/08/25 01:51:25;;;;;;;4.93;3.00;;;13.70;99.90;;;;;;5055519;28;20520;-46
2021/08/25 01:53:51;;;;;;;7.40;3.80;;;13.70;99.90;;;;;;5055789;28;20443;-42
2021/08/25 01:56:18;;;;;;;6.00;4.27;;;13.70;99.90;;;;;;5055833;28;20505;-42
2021/08/25 01:58:45;;;;;;;5.60;3.60;;;13.60;99.90;;;;;;5055547;28;20512;-45
2021/08/25 02:01:12;;;;;;;7.57;3.60;;;13.60;99.90;;;;;;5055128;28;20537;-48
2021/08/25 02:03:40;;;;;;;5.80;3.30;;;13.60;99.90;;;;;;5055073;28;20447;-46
2021/08/25 02:06:06;;;;;;;7.03;3.70;;;13.60;99.90;;;;;;5055081;28;20866;-48
2021/08/25 02:08:33;;;;;;;8.57;4.60;;;13.60;99.90;;;;;;5055350;28;20443;-48
2021/08/25 02:11:00;;;;;;;5.07;3.10;;;13.60;99.90;;;;;;5054910;28;20463;-43
2021/08/25 02:13:27;;;;;;;8.23;3.53;;;13.50;99.90;;;;;;5055424;28;20520;-45
2021/08/25 02:15:54;;;;;;;8.70;4.00;;;13.50;99.90;;;;;;5055189;28;20841;-43
2021/08/25 02:18:20;;;;;;;5.10;2.83;;;13.50;99.90;;;;;;5054994;28;20846;-45
2021/08/25 02:20:48;;;;;;;6.03;3.30;;;13.50;99.90;;;;;;5054718;28;20443;-48
2021/08/25 02:23:15;;;;;;;6.00;3.13;;;13.40;99.90;;;;;;5055255;28;20451;-45
2021/08/25 02:25:42;;;;;;;4.63;2.90;;;13.40;99.90;;;;;;5054996;28;20568;-44
2021/08/25 02:28:08;;;;;;;7.50;3.60;;;13.40;99.90;;;;;;5054902;28;20876;-48
2021/08/25 02:30:35;;;;;;;8.47;3.80;;;13.40;99.90;;;;;;5054904;28;20443;-45
2021/08/25 02:33:03;;;;;;;6.40;3.57;;;13.50;99.90;;;;;;5054641;28;20528;-46
2021/08/25 02:35:30;;;;;;;6.23;4.00;;;13.40;99.90;;;;;;5054121;28;20838;-50
2021/08/25 02:37:58;;;;;;;6.63;3.10;;;13.40;99.90;;;;;;5054784;28;20504;-46
2021/08/25 02:40:26;;;;;;;6.93;3.63;;;13.40;99.90;;;;;;5055097;28;20443;-44
2021/08/25 02:42:53;;;;;;;7.87;3.80;;;13.40;99.90;;;;;;5054474;28;20455;-44
2021/08/25 02:45:19;;;;;;;6.40;2.90;;;13.40;99.90;;;;;;5054383;28;20855;-42
2021/08/25 02:47:46;;;;;;;5.30;2.83;;;13.40;99.90;;;;;;5054713;28;20500;-47
2021/08/25 02:50:13;;;;;;;7.63;3.30;;;13.40;99.90;;;;;;5054985;28;20993;-46
2021/08/25 02:52:39;;;;;;;4.17;2.87;;;13.40;99.90;;;;;;5054776;28;20444;-48
2021/08/25 02:55:09;;;;;;;4.93;3.27;;;13.40;99.90;;;;;;5054642;28;20447;-45
2021/08/25 02:57:35;;;;;;;6.50;3.67;;;13.40;99.90;;;;;;5054773;28;20916;-42
2021/08/25 03:00:02;;;;;;;6.10;3.60;;;13.40;99.90;;;;;;5055052;28;20536;-45
2021/08/25 03:02:29;;;;;;;5.03;3.17;;;13.40;99.90;;;;;;5054985;28;20520;-43
2021/08/25 03:04:56;;;;;;;5.13;3.43;;;13.30;99.90;;;;;;5054784;28;20451;-45
2021/08/25 03:07:22;;;;;;;6.50;4.60;;;13.30;99.90;;;;;;5054816;28;20533;-44
2021/08/25 03:09:49;;;;;;;6.17;4.20;;;13.20;99.90;;;;;;5054017;28;20896;-43
2021/08/25 03:12:17;;;;;;;8.03;4.60;;;13.20;99.90;;;;;;5054721;28;20964;-45
2021/08/25 03:14:44;;;;;;;8.47;3.93;;;13.10;99.90;;;;;;5054519;28;20451;-47
2021/08/25 03:17:13;;;;;;;6.47;4.13;;;13.10;99.90;;;;;;5054670;28;20513;-46
2021/08/25 03:19:39;;;;;;;7.10;3.50;;;13.10;99.90;;;;;;5054377;28;20483;-47
2021/08/25 03:22:07;;;;;;;6.10;3.90;;;13.10;99.90;;;;;;5054448;28;20447;-49
2021/08/25 03:24:33;;;;;;;7.17;3.47;;;13.10;99.90;;;;;;5054378;28;20447;-44
2021/08/25 03:27:00;;;;;;;5.40;3.80;;;13.20;99.90;;;;;;5054068;28;20479;-47
2021/08/25 03:29:28;;;;;;;12.83;8.20;;;13.10;99.90;;;;;;5054254;28;20463;-46
2021/08/25 03:31:55;;;;;;;5.80;3.80;;;13.10;99.90;;;;;;5054061;28;20459;-42
2021/08/25 03:34:21;;;;;;;7.33;3.40;;;13.10;99.90;;;;;;5054695;28;20439;-49
2021/08/25 03:36:48;;;;;;;6.10;3.83;;;13.10;99.90;;;;;;5053949;28;20524;-48
2021/08/25 03:39:15;;;;;;;8.47;4.20;;;13.10;99.90;;;;;;5036635;28;20455;-47
2021/08/25 03:41:42;;;;;;;7.33;4.13;;;13.10;99.90;;;;;;5054682;28;20806;-45
2021/08/25 03:44:08;;;;;;;7.30;3.83;;;13.10;99.90;;;;;;5054232;28;20509;-47
2021/08/25 03:46:37;;;;;;;7.07;4.17;;;13.00;99.90;;;;;;5054384;28;20490;-43
2021/08/25 03:49:04;;;;;;;9.93;3.87;;;13.00;99.90;;;;;;5057225;28;20998;-43
2021/08/25 03:51:30;;;;;;;5.40;3.60;;;13.00;99.90;;;;;;5058521;28;20500;-43
2021/08/25 03:53:57;;;;;;;6.17;3.70;;;12.90;99.90;;;;;;5058563;28;20944;-43
2021/08/25 03:56:24;;;;;;;5.20;3.70;;;12.90;99.90;;;;;;5058844;28;21200;-43
2021/08/25 03:58:50;;;;;;;7.03;3.83;;;12.90;99.90;;;;;;5058078;28;20446;-44
2021/08/25 04:01:17;;;;;;;6.07;3.60;;;12.90;99.90;;;;;;5058277;28;20504;-46
2021/08/25 04:03:45;;;;;;;7.07;4.00;;;12.80;99.90;;;;;;5060242;28;20992;-46
2021/08/25 04:06:12;;;;;;;8.90;4.93;;;12.80;99.90;;;;;;5064166;28;20547;-43
2021/08/25 04:08:39;;;;;;;7.70;3.70;;;12.80;99.90;;;;;;5063923;28;20842;-43
2021/08/25 04:11:06;;;;;;;6.77;3.90;;;12.80;99.90;;;;;;5063418;28;20457;-46
2021/08/25 04:13:33;;;;;;;6.63;3.73;;;12.80;99.90;;;;;;5063232;28;20454;-43
2021/08/25 04:16:00;;;;;;;4.80;3.00;;;12.80;99.90;;;;;;5058749;28;20450;-48
2021/08/25 04:18:27;;;;;;;7.03;3.70;;;12.80;99.90;;;;;;5054850;28;20532;-46
2021/08/25 04:20:55;;;;;;;7.60;3.67;;;12.80;99.90;;;;;;5063025;28;20485;-45
2021/08/25 04:23:23;;;;;;;8.73;3.97;;;12.70;99.90;;;;;;5062917;28;20470;-44
2021/08/25 04:25:49;;;;;;;10.80;3.27;;;12.70;99.90;;;;;;5063128;28;20513;-43
2021/08/25 04:28:16;;;;;;;9.23;4.70;;;12.70;99.90;;;;;;5062867;28;20459;-43
2021/08/25 04:30:42;;;;;;;12.40;4.07;;;12.70;99.90;;;;;;5062885;28;20462;-50
2021/08/25 04:33:09;;;;;;;6.80;4.00;;;12.70;99.90;;;;;;5062933;28;20454;-45
2021/08/25 04:35:36;;;;;;;7.00;3.83;;;12.80;99.90;;;;;;5062137;28;20939;-46
2021/08/25 04:38:04;;;;;;;10.10;4.67;;;12.80;99.90;;;;;;5062222;28;20500;-44
2021/08/25 04:40:31;;;;;;;6.17;3.27;;;12.80;99.90;;;;;;5062296;28;20455;-43
2021/08/25 04:43:00;;;;;;;6.70;4.10;;;12.80;99.90;;;;;;5061324;28;20482;-51
2021/08/25 04:45:27;;;;;;;6.60;4.13;;;12.80;99.90;;;;;;5061954;28;20533;-49
2021/08/25 04:47:53;;;;;;;9.10;4.97;;;12.80;99.90;;;;;;5061175;28;20435;-46
2021/08/25 04:50:21;;;;;;;6.93;4.47;;;12.80;99.90;;;;;;5061076;28;20435;-49
2021/08/25 04:52:47;;;;;;;7.43;4.13;;;12.80;99.90;;;;;;5062190;28;20443;-46
2021/08/25 04:55:16;;;;;;;5.90;3.60;;;12.80;99.90;;;;;;5062108;28;20892;-46
2021/08/25 04:57:42;;;;;;;7.67;4.03;;;12.80;99.90;;;;;;5061341;28;20516;-49
2021/08/25 05:00:10;;;;;;;8.40;4.50;;;12.90;99.90;;;;;;5060980;28;20508;-49
2021/08/25 05:02:37;;;;;;;8.10;3.83;;;12.90;99.90;;;;;;5061966;28;20546;-42
2021/08/25 05:05:04;;;;;;;7.87;3.90;;;13.00;99.90;;;;;;5061057;28;20469;-46
2021/08/25 05:07:31;;;;;;;9.43;3.80;;;13.00;99.90;;;;;;5060855;28;20858;-46
2021/08/25 05:09:57;;;;;;;8.50;4.47;;;13.10;99.90;;;;;;5061195;28;20954;-45
2021/08/25 05:12:25;;;;;;;6.03;3.87;;;13.10;99.90;;;;;;5043635;28;20447;-42
2021/08/25 05:14:52;;;;;;;7.37;4.20;;;13.10;99.90;;;;;;5061995;28;20443;-46
2021/08/25 05:17:19;;;;;;;8.43;4.63;;;13.10;99.90;;;;;;5060541;28;20444;-45
2021/08/25 05:19:45;;;;;;;9.10;5.40;;;13.10;99.90;;;;;;5060853;28;20549;-46
2021/08/25 05:22:12;;;;;;;10.97;4.50;;;13.10;99.90;;;;;;5060525;28;20947;-44
2021/08/25 05:24:39;;;;;;;6.70;3.63;;;13.20;99.90;;;;;;5060522;28;20939;-46
2021/08/25 05:27:05;;;;;;;9.37;4.13;;;13.20;99.90;;;;;;5059921;28;20509;-45
2021/08/25 05:29:33;;;;;;;11.37;4.50;;;13.30;99.90;;;;;;5060614;28;20513;-45
2021/08/25 05:32:00;;;;;;;8.50;3.90;;;13.30;99.90;;;;;;5060688;28;20533;-44
2021/08/25 05:34:27;;;;;;;8.10;4.50;;;13.30;99.90;;;;;;5058787;28;20451;-49
2021/08/25 05:36:54;;;;;;;6.77;4.27;;;13.40;99.90;;;;;;5057479;28;20451;-44
2021/08/25 05:39:20;;;;;;;7.40;4.10;;;13.40;99.90;;;;;;5057770;28;20458;-44
2021/08/25 05:41:47;;;;;;;8.10;5.73;;;13.50;99.90;;;;;;5057790;28;20455;-47
2021/08/25 05:44:14;;;;;;;7.17;3.97;;;13.50;99.90;;;;;;5057536;28;20489;-48
2021/08/25 05:46:42;;;;;;;6.33;4.40;;;13.60;99.90;;;;;;5056433;28;20501;-44
2021/08/25 05:49:09;;;;;;;7.70;4.37;;;13.60;99.90;;;;;;5050199;28;20440;-43
2021/08/25 05:51:35;;;;;;;8.30;3.90;;;13.70;99.90;;;;;;5052241;28;20451;-44
2021/08/25 05:54:02;;;;;;;9.23;4.13;;;13.80;99.90;;;;;;5059396;28;20521;-48
2021/08/25 05:56:29;;;;;;;9.20;4.67;;;13.80;99.90;;;;;;5057436;28;20447;-43
2021/08/25 05:58:55;;;;;;;8.47;5.20;;;13.90;99.90;;;;;;5057473;28;20447;-43
2021/08/25 06:01:24;;;;;;;7.33;4.33;;;13.90;99.90;;;;;;5057772;28;20451;-43
2021/08/25 06:03:52;;;;;;;8.93;4.43;;;14.10;99.90;;;;;;5057697;28;20486;-44
2021/08/25 06:06:19;;;;;;;7.90;4.80;;;14.20;99.90;;;;;;5056976;28;20557;-48
2021/08/25 06:08:45;;;;;;;11.77;4.37;;;14.40;99.90;;;;;;5056997;28;20832;-44
2021/08/25 06:11:12;;;;;;;7.40;4.47;;;14.50;99.90;;;;;;5056141;28;20459;-44
2021/08/25 06:13:39;;;;;;;8.50;4.20;;;14.70;99.90;;;;;;5056488;28;20573;-46
2021/08/25 06:16:08;;;;;;;5.63;3.80;;;14.90;99.90;;;;;;5057433;28;20493;-41
2021/08/25 06:18:34;;;;;;;8.80;3.37;;;15.10;99.90;;;;;;5056907;28;20485;-41
2021/08/25 06:21:03;;;;;;;6.10;4.10;;;15.20;99.90;;;;;;5056067;28;20846;-45
2021/08/25 06:23:29;;;;;;;5.80;3.37;;;15.30;99.90;;;;;;5056792;28;20459;-41
2021/08/25 06:25:56;;;;;;;5.00;3.27;;;15.50;99.90;;;;;;5053577;28;20929;-44
2021/08/25 06:28:22;;;;;;;5.70;3.43;;;15.70;99.90;;;;;;5036908;28;20527;-41
2021/08/25 06:30:50;;;;;;;6.27;3.50;;;16.00;99.90;;;;;;5036095;28;20831;-42
2021/08/25 06:33:16;;;;;;;8.13;4.67;;;16.10;99.90;;;;;;5036476;28;20460;-44
2021/08/25 06:35:43;;;;;;;10.70;3.17;;;16.30;99.90;;;;;;5054145;28;20854;-42
2021/08/25 06:38:12;;;;;;;8.37;3.90;;;16.50;99.90;;;;;;5056108;28;20466;-43
2021/08/25 06:40:39;;;;;;;7.97;4.83;;;16.80;99.90;;;;;;5048369;28;20440;-45
2021/08/25 06:43:05;;;;;;;6.40;3.40;;;16.90;99.90;;;;;;5706260;22;21278;-43
2021/08/25 06:45:32;;;;;;;6.40;3.53;;;17.20;99.90;;;;;;5054755;28;20454;-44
2021/08/25 06:47:58;;;;;;;5.20;2.70;;;17.20;99.90;;;;;;5049208;28;20484;-42
2021/08/25 06:50:25;;;;;;;5.80;3.50;;;17.30;99.90;;;;;;5050354;28;20459;-46
2021/08/25 06:52:52;;;;;;;5.20;3.90;;;17.30;99.90;;;;;;5052780;28;20435;-43
2021/08/25 06:55:20;;;;;;;6.80;3.63;;;17.40;99.90;;;;;;5055772;28;20513;-42
2021/08/25 06:57:47;;;;;;;5.37;3.97;;;17.40;99.90;;;;;;5055678;28;20838;-43
2021/08/25 07:00:15;;;;;;;6.47;3.80;;;17.50;99.90;;;;;;5056163;28;20525;-46
2021/08/25 07:02:41;;;;;;;6.70;4.20;;;17.70;99.90;;;;;;5056965;28;20486;-47
2021/08/25 07:05:08;;;;;;;5.87;4.03;;;17.70;99.90;;;;;;5049192;28;20443;-44
2021/08/25 07:07:35;;;;;;;5.80;3.47;;;17.70;99.90;;;;;;5048592;28;20967;-43
2021/08/25 07:10:03;;;;;;;6.90;3.80;;;17.80;99.90;;;;;;5045286;28;20462;-42
2021/08/25 07:12:31;;;;;;;6.10;3.13;;;17.90;99.90;;;;;;5055747;28;20916;-42
2021/08/25 07:14:57;;;;;;;6.30;2.80;;;18.00;99.90;;;;;;5055036;28;20455;-44
2021/08/25 07:17:24;;;;;;;10.23;3.30;;;18.10;99.90;;;;;;5055206;28;20536;-44
2021/08/25 07:19:51;;;;;;;4.27;3.00;;;18.30;99.90;;;;;;5055465;28;20443;-43
2021/08/25 07:22:18;;;;;;;9.10;3.80;;;18.50;99.90;;;;;;5057085;28;20455;-45
2021/08/25 07:24:45;;;;;;;5.53;3.30;;;18.60;99.90;;;;;;5058832;28;20923;-46
2021/08/25 07:27:12;;;;;;;4.53;2.20;;;18.70;99.90;;;;;;5057783;28;20519;-42
2021/08/25 07:29:40;;;;;;;7.63;3.10;;;18.60;99.90;;;;;;5061124;28;20451;-45
2021/08/25 07:32:07;;;;;;;4.63;2.50;;;18.60;99.90;;;;;;5061036;28;20447;-45
2021/08/25 07:34:34;;;;;;;5.00;2.77;;;18.70;99.90;;;;;;5062213;28;20467;-44
2021/08/25 07:37:02;;;;;;;6.30;3.00;;;18.80;99.90;;;;;;5061615;28;20495;-42
2021/08/25 07:39:29;;;;;;;6.87;2.90;;;18.90;99.90;;;;;;5061306;28;20462;-43
2021/08/25 07:41:55;;;;;;;5.07;2.33;;;18.90;99.90;;;;;;5060907;28;20454;-44
2021/08/25 07:44:22;;;;;;;4.57;3.10;;;19.00;99.90;;;;;;5060370;28;20483;-47
2021/08/25 07:46:53;;;;;;;6.60;2.93;;;19.10;99.90;;;;;;5047696;28;20479;-42
2021/08/25 07:49:19;;;;;;;4.23;3.23;;;19.20;99.90;;;;;;5045480;28;20874;-43
2021/08/25 07:51:46;;;;;;;3.00;2.00;;;19.30;99.90;;;;;;5040040;28;20460;-46
2021/08/25 07:54:13;;;;;;;3.00;2.13;;;19.40;99.90;;;;;;5040522;28;20751;-50
2021/08/25 07:56:39;;;;;;;3.60;2.80;;;19.10;99.90;;;;;;5040577;28;20527;-52
2021/08/25 07:59:06;;;;;;;4.53;2.63;;;19.10;99.90;;;;;;5040755;28;20530;-46
2021/08/25 08:01:33;;;;;;;4.40;2.80;;;19.50;99.90;;;;;;5038840;28;20945;-41
2021/08/25 08:04:01;;;;;;;7.53;2.60;;;19.80;99.90;;;;;;5037680;28;20448;-43
2021/08/25 08:06:28;;;;;;;5.63;2.80;;;20.30;99.20;;;;;;5029713;28;20749;-46
2021/08/25 08:08:54;;;;;;;4.70;2.80;;;21.00;97.90;;;;;;5037125;28;20487;-45
2021/08/25 08:11:21;;;;;;;3.20;2.13;;;21.90;95.50;;;;;;5037514;28;20456;-49
2021/08/25 08:13:48;;;;;;;4.87;2.90;;;22.40;92.90;;;;;;5037187;28;20456;-51
2021/08/25 08:16:18;;;;;;;5.80;3.07;;;22.70;90.60;;;;;;5036934;28;20463;-48
2021/08/25 08:18:55;;;;;;;8.17;3.30;;;23.00;88.70;;;;;;5037409;28;20447;-52
2021/08/25 08:21:25;;;;;;;4.40;2.90;;;23.00;89.00;;;;;;5037323;28;20854;-51
2021/08/25 08:23:52;;;;;;;8.77;3.30;;;22.90;87.70;;;;;;5037103;28;20440;-53
2021/08/25 08:26:18;;;;;;;4.20;3.00;;;22.70;87.20;;;;;;5036882;28;20467;-49
2021/08/25 08:28:45;;;;;;;22.33;3.13;;;22.30;87.90;;;;;;5036972;28;20488;-50
2021/08/25 08:31:12;;;;;;;11.70;3.40;;;22.00;89.60;;;;;;5037144;28;20755;-48
2021/08/25 08:33:39;;;;;;;13.97;3.53;;;21.70;89.70;;;;;;5035804;28;20448;-51
2021/08/25 08:36:06;;;;;;;8.50;3.03;;;21.40;90.60;;;;;;5037015;28;20901;-54
2021/08/25 08:38:35;;;;;;;4.80;3.13;;;21.20;90.30;;;;;;5038289;28;20444;-49
2021/08/25 08:41:01;;;;;;;4.27;2.70;;;20.80;90.50;;;;;;5038778;28;20444;-50
2021/08/25 08:43:28;;;;;;;18.40;3.40;;;20.60;91.10;;;;;;5038918;28;20488;-47
2021/08/25 08:45:55;;;;;;;13.60;3.33;;;20.50;91.60;;;;;;5038767;28;20471;-47
2021/08/25 08:48:23;;;;;;;14.87;5.33;;;20.50;91.80;;;;;;5039052;28;20480;-51
2021/08/25 08:50:50;;;;;;;252.40;24.53;;;20.50;92.60;;;;;;5038974;28;20475;-51
2021/08/25 08:53:18;;;;;;;15.87;4.53;;;20.70;93.10;;;;;;5038607;28;20505;-52
2021/08/25 08:55:47;;;;;;;5.13;2.63;;;21.10;92.90;;;;;;5039003;28;20543;-47
2021/08/25 08:58:13;;;;;;;12.70;3.33;;;21.30;92.80;;;;;;5038168;28;20877;-49
2021/08/25 09:00:42;;;;;;;6.60;2.43;;;21.30;93.20;;;;;;5037752;28;20543;-51
2021/08/25 09:03:21;;;;;;;13.23;3.10;;;21.40;93.20;;;;;;5036661;28;20743;-50
2021/08/25 09:05:54;;;;;;;3.10;2.30;;;21.30;93.80;;;;;;5036689;28;20462;-50
2021/08/25 09:08:23;;;;;;;4.33;2.70;;;21.20;93.90;;;;;;5036416;28;20479;-49
2021/08/25 09:11:01;;;;;;;4.70;2.67;;;21.10;94.00;;;;;;5036332;28;20424;-49
2021/08/25 09:13:34;;;;;;;5.80;3.67;;;20.90;94.60;;;;;;5038666;28;20432;-49
2021/08/25 09:16:01;;;;;;;5.50;2.63;;;20.60;94.90;;;;;;5038690;28;20436;-51
2021/08/25 09:18:28;;;;;;;4.40;3.00;;;20.40;96.00;;;;;;5037109;28;20444;-49
2021/08/25 09:20:55;;;;;;;12.73;3.10;;;20.20;97.00;;;;;;5036145;28;20449;-54
2021/08/25 09:23:23;;;;;;;5.83;2.50;;;20.10;97.70;;;;;;5036365;28;20530;-48
2021/08/25 09:25:53;;;;;;;6.90;3.40;;;19.90;98.70;;;;;;5036291;28;20456;-49
2021/08/25 09:28:25;;;;;;;6.47;3.20;;;19.90;99.10;;;;;;5036497;28;20778;-49
2021/08/25 09:30:54;;;;;;;7.60;2.70;;;19.80;99.90;;;;;;5035866;28;20575;-51
2021/08/25 09:33:23;;;;;;;6.47;2.70;;;19.70;99.90;;;;;;5036215;28;20462;-52
2021/08/25 09:35:49;;;;;;;4.10;2.80;;;19.60;99.90;;;;;;5036048;28;20452;-53
2021/08/25 09:38:18;;;;;;;5.17;3.20;;;19.40;99.90;;;;;;5036493;28;20459;-50
2021/08/25 09:40:46;;;;;;;4.63;2.77;;;19.30;99.90;;;;;;5036572;28;20444;-53
2021/08/25 09:43:31;;;;;;;6.33;2.87;;;19.20;99.90;;;;;;5035875;28;20440;-53
2021/08/25 09:46:06;;;;;;;4.07;2.90;;;19.20;99.90;;;;;;5035954;28;20762;-47
2021/08/25 09:48:34;;;;;;;8.53;2.97;;;19.10;99.90;;;;;;5038943;28;20520;-51
2021/08/25 09:51:01;;;;;;;4.10;2.97;;;19.00;99.90;;;;;;5047370;28;20476;-52
2021/08/25 09:53:28;;;;;;;5.93;3.10;;;19.00;99.90;;;;;;5035973;28;20449;-53
2021/08/25 09:55:54;;;;;;;14.43;7.40;;;19.00;99.90;;;;;;5035632;28;20534;-53
2021/08/25 09:58:24;;;;;;;13.87;6.20;;;19.10;99.90;;;;;;5036308;28;20509;-52
2021/08/25 10:00:53;;;;;;;3.63;2.60;;;19.10;99.90;;;;;;5036020;28;20543;-52
2021/08/25 10:03:19;;;;;;;4.80;3.17;;;19.10;99.90;;;;;;5036545;28;20478;-46
2021/08/25 10:05:47;;;;;;;4.40;2.30;;;19.00;99.90;;;;;;5036388;28;20539;-54
2021/08/25 10:08:14;;;;;;;10.90;2.80;;;19.00;99.90;;;;;;5053630;28;20566;-54
2021/08/25 10:10:41;;;;;;;4.43;3.37;;;19.00;99.90;;;;;;5055504;28;20443;-53
2021/08/25 10:13:08;;;;;;;3.30;2.57;;;19.10;99.90;;;;;;5055370;28;20459;-49
2021/08/25 10:15:46;;;;;;;8.30;3.23;;;19.00;99.90;;;;;;5055848;28;20443;-49
2021/08/25 10:18:27;;;;;;;5.90;3.13;;;19.00;99.90;;;;;;5055131;28;20771;-52
2021/08/25 10:20:55;;;;;;;5.57;2.57;;;19.00;99.90;;;;;;5055671;28;20463;-50
2021/08/25 10:24:02;;;;;;;3.50;2.33;;;18.90;99.90;;;;;;5055803;28;20446;-52
2021/08/25 10:26:32;;;;;;;8.20;3.57;;;18.90;99.90;;;;;;5055722;28;20911;-53
2021/08/25 10:29:07;;;;;;;5.37;2.97;;;18.80;99.90;;;;;;5055187;28;20486;-49
2021/08/25 10:32:12;;;;;;;7.83;4.43;;;18.70;99.90;;;;;;5049391;28;20466;-47
2021/08/25 10:34:42;;;;;;;5.60;3.33;;;18.70;99.90;;;;;;5042411;28;20447;-53
2021/08/25 10:37:30;;;;;;;5.70;2.70;;;18.60;99.90;;;;;;5045600;28;20470;-49
2021/08/25 10:40:00;;;;;;;7.40;2.50;;;18.50;99.90;;;;;;5039206;28;20447;-50
2021/08/25 10:42:49;;;;;;;4.37;3.20;;;18.60;99.90;;;;;;5039086;28;20451;-47
2021/08/25 10:45:16;;;;;;;5.17;3.10;;;18.50;99.90;;;;;;5050174;28;20494;-49
2021/08/25 10:47:57;;;;;;;5.10;3.40;;;18.50;99.90;;;;;;5054831;28;20597;-48
2021/08/25 10:50:45;;;;;;;5.53;2.73;;;18.60;99.90;;;;;;5038883;28;20522;-46
2021/08/25 10:53:39;;;;;;;6.23;3.37;;;18.60;99.90;;;;;;5044858;28;20491;-47
2021/08/25 10:56:07;;;;;;;5.37;3.73;;;18.70;99.90;;;;;;5050622;28;20980;-50
2021/08/25 10:58:45;;;;;;;14.10;6.20;;;18.80;99.90;;;;;;5039961;28;20450;-51
2021/08/25 11:01:28;;;;;;;3.53;2.57;;;18.90;99.90;;;;;;5054800;28;20443;-53
2021/08/25 11:03:55;;;;;;;5.30;3.00;;;18.90;99.90;;;;;;5038379;28;20458;-51
2021/08/25 11:06:37;;;;;;;4.80;3.10;;;19.00;99.90;;;;;;5038038;28;20962;-51
2021/08/25 11:09:15;;;;;;;4.57;2.87;;;19.00;99.90;;;;;;5045713;28;20475;-48
2021/08/25 11:11:46;;;;;;;5.03;3.10;;;19.20;99.90;;;;;;5049279;28;20455;-47
2021/08/25 11:14:17;;;;;;;6.60;4.07;;;19.30;99.90;;;;;;5054647;28;20443;-51
2021/08/25 11:16:44;;;;;;;5.10;3.17;;;19.40;99.90;;;;;;5055060;28;20522;-51
2021/08/25 11:19:21;;;;;;;5.23;3.03;;;19.60;99.90;;;;;;5054943;28;20451;-50
2021/08/25 11:21:47;;;;;;;4.97;2.90;;;19.80;99.90;;;;;;5054725;28;20439;-49
2021/08/25 11:24:15;;;;;;;7.90;4.30;;;20.20;99.90;;;;;;5054555;28;20443;-51
2021/08/25 11:26:42;;;;;;;4.30;2.90;;;20.60;99.90;;;;;;5054273;28;20459;-50
2021/08/25 11:29:17;;;;;;;50.23;25.10;;;21.00;99.90;;;;;;5053957;28;20489;-52
2021/08/25 11:31:43;;;;;;;7.73;4.63;;;21.30;99.90;;;;;;5055028;28;20537;-52
2021/08/25 11:34:12;;;;;;;9.43;5.30;;;21.40;99.90;;;;;;5057783;28;20814;-47
2021/08/25 11:36:52;;;;;;;8.37;5.00;;;21.50;99.90;;;;;;5039689;28;20464;-46
2021/08/25 11:39:20;;;;;;;13.00;9.10;;;21.90;99.90;;;;;;5034208;28;20761;-51
2021/08/25 11:41:48;;;;;;;7.60;4.60;;;22.20;99.90;;;;;;5034263;28;20922;-52
2021/08/25 11:44:14;;;;;;;11.10;6.63;;;22.40;99.50;;;;;;5034018;28;20951;-52
2021/08/25 11:46:41;;;;;;;5.33;3.90;;;22.40;99.70;;;;;;5034245;28;20912;-51
2021/08/25 11:49:08;;;;;;;4.30;3.00;;;22.40;99.20;;;;;;5033779;28;20480;-52
2021/08/25 11:51:38;;;;;;;7.67;3.90;;;22.30;99.30;;;;;;5034095;28;20448;-52
2021/08/25 11:54:04;;;;;;;6.60;3.63;;;22.50;98.90;;;;;;5033756;28;20460;-49
2021/08/25 11:56:32;;;;;;;8.90;3.30;;;22.40;98.30;;;;;;5033941;28;20448;-49
2021/08/25 11:59:09;;;;;;;7.43;3.60;;;22.30;98.20;;;;;;5034176;28;20460;-54
2021/08/25 12:01:36;;;;;;;4.57;3.87;;;22.20;98.80;;;;;;5033869;28;20464;-55
2021/08/25 12:04:03;;;;;;;5.33;3.00;;;22.10;99.00;;;;;;5034054;28;20909;-50
2021/08/25 12:06:46;;;;;;;6.27;3.60;;;22.10;98.90;;;;;;5033826;28;20904;-49
2021/08/25 12:09:29;;;;;;;4.80;3.30;;;21.90;99.70;;;;;;5035682;28;20483;-48
2021/08/25 12:11:57;;;;;;;4.10;2.83;;;21.90;99.90;;;;;;5037593;28;20756;-48
2021/08/25 12:14:24;;;;;;;4.83;2.70;;;21.90;99.90;;;;;;5037609;28;20837;-49
2021/08/25 12:17:05;;;;;;;4.60;2.90;;;22.00;99.90;;;;;;5037481;28;20443;-54
2021/08/25 12:19:34;;;;;;;4.60;2.90;;;22.00;99.90;;;;;;5037290;28;20447;-54
2021/08/25 12:22:20;;;;;;;5.40;3.23;;;22.20;99.90;;;;;;5037108;28;20479;-47
2021/08/25 12:24:46;;;;;;;3.70;3.10;;;22.30;99.90;;;;;;5036433;28;20955;-52
2021/08/25 12:27:15;;;;;;;5.20;3.00;;;22.30;99.90;;;;;;5037061;28;20447;-48
2021/08/25 12:29:44;;;;;;;5.37;3.70;;;22.30;99.90;;;;;;5036908;28;20545;-50
2021/08/25 12:32:12;;;;;;;6.07;3.50;;;22.40;99.90;;;;;;5037044;28;20499;-47
2021/08/25 12:34:55;;;;;;;4.70;3.30;;;22.30;99.80;;;;;;5036919;28;20471;-47
2021/08/25 12:37:22;;;;;;;5.43;3.90;;;22.10;99.80;;;;;;5035411;28;20464;-50
2021/08/25 12:39:48;;;;;;;4.30;3.00;;;22.00;99.90;;;;;;5037110;28;20535;-51
2021/08/25 12:42:16;;;;;;;11.80;3.17;;;22.00;99.90;;;;;;5036566;28;20456;-51
2021/08/25 12:44:43;;;;;;;5.27;2.97;;;21.90;99.90;;;;;;5036982;28;20522;-52
2021/08/25 12:47:12;;;;;;;9.57;3.00;;;21.90;99.90;;;;;;5036739;28;20510;-49
2021/08/25 12:49:39;;;;;;;7.43;3.40;;;21.70;99.90;;;;;;5042048;28;20880;-49
2021/08/25 12:52:06;;;;;;;4.90;3.33;;;21.70;99.90;;;;;;5056688;28;20462;-51